sensor_id;sensor_type;location;lat;lon;timestamp;P1;durP1;ratioP1;P2;durP2;ratioP2
11711;SDS011;5912;51.034;6.984;2023-12-20T00:00:55;10.10;;;8.20;;
11711;SDS011;5912;51.034;6.984;2023-12-20T00:03:20;9.35;;;7.68;;
11711;SDS011;5912;51.034;6.984;2023-12-20T00:05:46;10.27;;;7.88;;
11711;SDS011;5912;51.034;6.984;2023-12-20T00:08:12;10.33;;;8.53;;
11711;SDS011;5912;51.034;6.984;2023-12-20T00:10:37;11.57;;;9.25;;
11711;SDS011;5912;51.034;6.984;2023-12-20T00:13:03;10.87;;;8.47;;
11711;SDS011;5912;51.034;6.984;2023-12-20T00:15:28;10.85;;;8.70;;
11711;SDS011;5912;51.034;6.984;2023-12-20T00:17:53;10.87;;;8.47;;
11711;SDS011;5912;51.034;6.984;2023-12-20T00:20:19;9.60;;;7.70;;
11711;SDS011;5912;51.034;6.984;2023-12-20T00:22:44;10.33;;;7.83;;
11711;SDS011;5912;51.034;6.984;2023-12-20T00:25:09;10.45;;;8.07;;
11711;SDS011;5912;51.034;6.984;2023-12-20T00:27:35;9.90;;;7.87;;
11711;SDS011;5912;51.034;6.984;2023-12-20T00:30:00;10.17;;;7.90;;
11711;SDS011;5912;51.034;6.984;2023-12-20T00:32:25;9.63;;;7.53;;
11711;SDS011;5912;51.034;6.984;2023-12-20T00:34:51;10.10;;;7.77;;
11711;SDS011;5912;51.034;6.984;2023-12-20T00:37:16;7.63;;;6.43;;
11711;SDS011;5912;51.034;6.984;2023-12-20T00:39:41;7.03;;;5.00;;
11711;SDS011;5912;51.034;6.984;2023-12-20T00:42:07;6.75;;;4.40;;
11711;SDS011;5912;51.034;6.984;2023-12-20T00:44:32;5.35;;;4.43;;
11711;SDS011;5912;51.034;6.984;2023-12-20T00:46:58;5.03;;;4.22;;
11711;SDS011;5912;51.034;6.984;2023-12-20T00:49:23;6.40;;;3.72;;
11711;SDS011;5912;51.034;6.984;2023-12-20T00:51:48;5.80;;;3.83;;
11711;SDS011;5912;51.034;6.984;2023-12-20T00:54:15;4.40;;;3.47;;
11711;SDS011;5912;51.034;6.984;2023-12-20T00:56:40;4.13;;;2.77;;
11711;SDS011;5912;51.034;6.984;2023-12-20T00:59:06;5.20;;;2.87;;
11711;SDS011;5912;51.034;6.984;2023-12-20T01:01:31;4.57;;;3.47;;
11711;SDS011;5912;51.034;6.984;2023-12-20T01:03:59;5.97;;;3.17;;
11711;SDS011;5912;51.034;6.984;2023-12-20T01:06:24;5.70;;;3.73;;
11711;SDS011;5912;51.034;6.984;2023-12-20T01:08:50;6.03;;;4.30;;
11711;SDS011;5912;51.034;6.984;2023-12-20T01:11:15;6.33;;;3.83;;
11711;SDS011;5912;51.034;6.984;2023-12-20T01:13:40;6.27;;;4.40;;
11711;SDS011;5912;51.034;6.984;2023-12-20T01:16:08;8.60;;;4.63;;
11711;SDS011;5912;51.034;6.984;2023-12-20T01:18:35;7.50;;;5.37;;
11711;SDS011;5912;51.034;6.984;2023-12-20T01:21:03;7.93;;;5.17;;
11711;SDS011;5912;51.034;6.984;2023-12-20T01:23:29;8.97;;;5.47;;
11711;SDS011;5912;51.034;6.984;2023-12-20T01:25:55;6.13;;;5.20;;
11711;SDS011;5912;51.034;6.984;2023-12-20T01:28:21;8.00;;;5.30;;
11711;SDS011;5912;51.034;6.984;2023-12-20T01:30:55;10.47;;;5.50;;
11711;SDS011;5912;51.034;6.984;2023-12-20T01:33:20;12.10;;;5.80;;
11711;SDS011;5912;51.034;6.984;2023-12-20T01:35:46;10.13;;;5.67;;
11711;SDS011;5912;51.034;6.984;2023-12-20T01:38:11;8.13;;;6.50;;
11711;SDS011;5912;51.034;6.984;2023-12-20T01:40:36;10.20;;;6.73;;
11711;SDS011;5912;51.034;6.984;2023-12-20T01:43:02;11.50;;;6.90;;
11711;SDS011;5912;51.034;6.984;2023-12-20T01:45:33;11.57;;;8.10;;
11711;SDS011;5912;51.034;6.984;2023-12-20T01:47:58;9.53;;;7.00;;
11711;SDS011;5912;51.034;6.984;2023-12-20T01:50:25;8.93;;;6.47;;
11711;SDS011;5912;51.034;6.984;2023-12-20T01:52:50;13.27;;;6.53;;
11711;SDS011;5912;51.034;6.984;2023-12-20T01:55:20;10.43;;;6.00;;
11711;SDS011;5912;51.034;6.984;2023-12-20T01:57:45;13.17;;;6.23;;
11711;SDS011;5912;51.034;6.984;2023-12-20T02:00:12;7.03;;;5.53;;
11711;SDS011;5912;51.034;6.984;2023-12-20T02:02:39;9.20;;;6.50;;
11711;SDS011;5912;51.034;6.984;2023-12-20T02:05:05;9.63;;;5.73;;
11711;SDS011;5912;51.034;6.984;2023-12-20T02:07:34;9.53;;;5.70;;
11711;SDS011;5912;51.034;6.984;2023-12-20T02:10:00;11.13;;;5.07;;
11711;SDS011;5912;51.034;6.984;2023-12-20T02:12:26;6.23;;;5.17;;
11711;SDS011;5912;51.034;6.984;2023-12-20T02:14:51;10.27;;;5.07;;
11711;SDS011;5912;51.034;6.984;2023-12-20T02:17:16;7.73;;;4.90;;
11711;SDS011;5912;51.034;6.984;2023-12-20T02:19:43;8.17;;;4.87;;
11711;SDS011;5912;51.034;6.984;2023-12-20T02:22:11;9.47;;;5.77;;
11711;SDS011;5912;51.034;6.984;2023-12-20T02:24:37;8.97;;;5.33;;
11711;SDS011;5912;51.034;6.984;2023-12-20T02:27:03;10.67;;;5.50;;
11711;SDS011;5912;51.034;6.984;2023-12-20T02:29:30;9.03;;;5.03;;
11711;SDS011;5912;51.034;6.984;2023-12-20T02:31:57;12.47;;;4.77;;
11711;SDS011;5912;51.034;6.984;2023-12-20T02:34:22;14.63;;;5.07;;
11711;SDS011;5912;51.034;6.984;2023-12-20T02:36:47;6.87;;;4.30;;
11711;SDS011;5912;51.034;6.984;2023-12-20T02:39:13;13.43;;;4.80;;
11711;SDS011;5912;51.034;6.984;2023-12-20T02:41:42;10.10;;;4.03;;
11711;SDS011;5912;51.034;6.984;2023-12-20T02:44:07;12.57;;;4.90;;
11711;SDS011;5912;51.034;6.984;2023-12-20T02:46:32;7.10;;;4.40;;
11711;SDS011;5912;51.034;6.984;2023-12-20T02:48:58;6.83;;;4.40;;
11711;SDS011;5912;51.034;6.984;2023-12-20T02:51:23;9.97;;;4.63;;
11711;SDS011;5912;51.034;6.984;2023-12-20T02:53:48;12.43;;;4.63;;
11711;SDS011;5912;51.034;6.984;2023-12-20T02:56:13;10.93;;;4.50;;
11711;SDS011;5912;51.034;6.984;2023-12-20T02:58:39;13.37;;;4.93;;
11711;SDS011;5912;51.034;6.984;2023-12-20T03:01:05;11.03;;;4.27;;
11711;SDS011;5912;51.034;6.984;2023-12-20T03:03:30;7.30;;;3.80;;
11711;SDS011;5912;51.034;6.984;2023-12-20T03:05:56;9.00;;;3.83;;
11711;SDS011;5912;51.034;6.984;2023-12-20T03:08:21;13.63;;;3.80;;
11711;SDS011;5912;51.034;6.984;2023-12-20T03:10:47;10.63;;;3.10;;
11711;SDS011;5912;51.034;6.984;2023-12-20T03:13:12;8.90;;;3.20;;
11711;SDS011;5912;51.034;6.984;2023-12-20T03:15:37;12.47;;;3.10;;
11711;SDS011;5912;51.034;6.984;2023-12-20T03:18:03;7.17;;;2.73;;
11711;SDS011;5912;51.034;6.984;2023-12-20T03:20:28;7.63;;;2.13;;
11711;SDS011;5912;51.034;6.984;2023-12-20T03:22:56;6.23;;;2.20;;
11711;SDS011;5912;51.034;6.984;2023-12-20T03:25:21;8.37;;;2.90;;
11711;SDS011;5912;51.034;6.984;2023-12-20T03:27:46;11.07;;;2.70;;
11711;SDS011;5912;51.034;6.984;2023-12-20T03:30:12;10.37;;;2.50;;
11711;SDS011;5912;51.034;6.984;2023-12-20T03:32:38;10.57;;;2.67;;
11711;SDS011;5912;51.034;6.984;2023-12-20T03:35:04;14.57;;;2.27;;
11711;SDS011;5912;51.034;6.984;2023-12-20T03:37:29;8.97;;;2.23;;
11711;SDS011;5912;51.034;6.984;2023-12-20T03:39:55;7.40;;;2.30;;
11711;SDS011;5912;51.034;6.984;2023-12-20T03:42:20;12.67;;;2.60;;
11711;SDS011;5912;51.034;6.984;2023-12-20T03:44:45;9.43;;;2.50;;
11711;SDS011;5912;51.034;6.984;2023-12-20T03:47:11;7.70;;;2.30;;
11711;SDS011;5912;51.034;6.984;2023-12-20T03:49:36;9.37;;;2.47;;
11711;SDS011;5912;51.034;6.984;2023-12-20T03:52:03;8.37;;;3.00;;
11711;SDS011;5912;51.034;6.984;2023-12-20T03:54:29;12.10;;;2.80;;
11711;SDS011;5912;51.034;6.984;2023-12-20T03:56:54;7.17;;;2.13;;
11711;SDS011;5912;51.034;6.984;2023-12-20T03:59:20;9.77;;;2.50;;
11711;SDS011;5912;51.034;6.984;2023-12-20T04:01:45;9.17;;;2.47;;
11711;SDS011;5912;51.034;6.984;2023-12-20T04:04:10;9.10;;;2.80;;
11711;SDS011;5912;51.034;6.984;2023-12-20T04:06:36;10.20;;;3.47;;
11711;SDS011;5912;51.034;6.984;2023-12-20T04:09:02;10.07;;;2.50;;
11711;SDS011;5912;51.034;6.984;2023-12-20T04:11:28;11.47;;;2.97;;
11711;SDS011;5912;51.034;6.984;2023-12-20T04:13:53;8.70;;;3.20;;
11711;SDS011;5912;51.034;6.984;2023-12-20T04:16:18;13.00;;;2.80;;
11711;SDS011;5912;51.034;6.984;2023-12-20T04:18:43;8.80;;;2.87;;
11711;SDS011;5912;51.034;6.984;2023-12-20T04:21:09;10.67;;;2.50;;
11711;SDS011;5912;51.034;6.984;2023-12-20T04:23:34;8.20;;;2.43;;
11711;SDS011;5912;51.034;6.984;2023-12-20T04:25:59;13.30;;;2.83;;
11711;SDS011;5912;51.034;6.984;2023-12-20T04:28:25;7.93;;;3.10;;
11711;SDS011;5912;51.034;6.984;2023-12-20T04:30:50;9.23;;;2.30;;
11711;SDS011;5912;51.034;6.984;2023-12-20T04:33:15;8.40;;;2.93;;
11711;SDS011;5912;51.034;6.984;2023-12-20T04:35:41;10.07;;;2.67;;
11711;SDS011;5912;51.034;6.984;2023-12-20T04:38:07;9.23;;;2.23;;
11711;SDS011;5912;51.034;6.984;2023-12-20T04:40:33;8.57;;;2.77;;
11711;SDS011;5912;51.034;6.984;2023-12-20T04:42:59;7.73;;;2.67;;
11711;SDS011;5912;51.034;6.984;2023-12-20T04:45:24;9.93;;;3.93;;
11711;SDS011;5912;51.034;6.984;2023-12-20T04:47:50;12.13;;;3.43;;
11711;SDS011;5912;51.034;6.984;2023-12-20T04:50:15;10.67;;;2.90;;
11711;SDS011;5912;51.034;6.984;2023-12-20T04:52:41;10.97;;;3.40;;
11711;SDS011;5912;51.034;6.984;2023-12-20T04:55:07;14.67;;;3.40;;
11711;SDS011;5912;51.034;6.984;2023-12-20T04:57:33;8.03;;;3.30;;
11711;SDS011;5912;51.034;6.984;2023-12-20T04:59:59;12.67;;;3.30;;
11711;SDS011;5912;51.034;6.984;2023-12-20T05:02:24;8.27;;;3.30;;
11711;SDS011;5912;51.034;6.984;2023-12-20T05:04:49;11.40;;;3.67;;
11711;SDS011;5912;51.034;6.984;2023-12-20T05:07:15;9.60;;;3.30;;
11711;SDS011;5912;51.034;6.984;2023-12-20T05:09:40;12.90;;;3.37;;
11711;SDS011;5912;51.034;6.984;2023-12-20T05:12:06;9.10;;;2.90;;
11711;SDS011;5912;51.034;6.984;2023-12-20T05:14:32;7.90;;;3.03;;
11711;SDS011;5912;51.034;6.984;2023-12-20T05:16:57;12.03;;;3.33;;
11711;SDS011;5912;51.034;6.984;2023-12-20T05:19:23;10.23;;;2.90;;
11711;SDS011;5912;51.034;6.984;2023-12-20T05:21:49;11.43;;;3.07;;
11711;SDS011;5912;51.034;6.984;2023-12-20T05:24:14;8.50;;;3.00;;
11711;SDS011;5912;51.034;6.984;2023-12-20T05:26:39;8.00;;;3.20;;
11711;SDS011;5912;51.034;6.984;2023-12-20T05:29:05;10.77;;;3.50;;
11711;SDS011;5912;51.034;6.984;2023-12-20T05:31:30;7.47;;;3.30;;
11711;SDS011;5912;51.034;6.984;2023-12-20T05:33:56;9.30;;;3.10;;
11711;SDS011;5912;51.034;6.984;2023-12-20T05:36:21;7.60;;;2.97;;
11711;SDS011;5912;51.034;6.984;2023-12-20T05:38:47;11.90;;;3.20;;
11711;SDS011;5912;51.034;6.984;2023-12-20T05:41:12;15.77;;;3.73;;
11711;SDS011;5912;51.034;6.984;2023-12-20T05:43:38;10.73;;;3.63;;
11711;SDS011;5912;51.034;6.984;2023-12-20T05:46:03;7.33;;;3.30;;
11711;SDS011;5912;51.034;6.984;2023-12-20T05:48:29;9.23;;;3.50;;
11711;SDS011;5912;51.034;6.984;2023-12-20T05:50:54;10.60;;;3.63;;
11711;SDS011;5912;51.034;6.984;2023-12-20T05:53:19;8.77;;;3.37;;
11711;SDS011;5912;51.034;6.984;2023-12-20T05:55:44;7.80;;;3.17;;
11711;SDS011;5912;51.034;6.984;2023-12-20T05:58:10;8.73;;;2.87;;
11711;SDS011;5912;51.034;6.984;2023-12-20T06:00:35;10.03;;;3.10;;
11711;SDS011;5912;51.034;6.984;2023-12-20T06:03:00;7.50;;;3.07;;
11711;SDS011;5912;51.034;6.984;2023-12-20T06:05:26;13.13;;;3.50;;
11711;SDS011;5912;51.034;6.984;2023-12-20T06:07:51;12.73;;;3.73;;
11711;SDS011;5912;51.034;6.984;2023-12-20T06:10:17;8.57;;;2.90;;
11711;SDS011;5912;51.034;6.984;2023-12-20T06:12:42;10.73;;;3.47;;
11711;SDS011;5912;51.034;6.984;2023-12-20T06:15:08;12.00;;;3.10;;
11711;SDS011;5912;51.034;6.984;2023-12-20T06:17:33;11.57;;;3.60;;
11711;SDS011;5912;51.034;6.984;2023-12-20T06:20:00;9.50;;;2.80;;
11711;SDS011;5912;51.034;6.984;2023-12-20T06:22:25;8.67;;;2.80;;
11711;SDS011;5912;51.034;6.984;2023-12-20T06:24:51;15.80;;;3.10;;
11711;SDS011;5912;51.034;6.984;2023-12-20T06:27:16;12.50;;;3.00;;
11711;SDS011;5912;51.034;6.984;2023-12-20T06:29:42;6.10;;;3.00;;
11711;SDS011;5912;51.034;6.984;2023-12-20T06:32:09;13.93;;;3.83;;
11711;SDS011;5912;51.034;6.984;2023-12-20T06:34:34;14.30;;;3.33;;
11711;SDS011;5912;51.034;6.984;2023-12-20T06:37:00;13.03;;;3.23;;
11711;SDS011;5912;51.034;6.984;2023-12-20T06:39:25;12.07;;;2.77;;
11711;SDS011;5912;51.034;6.984;2023-12-20T06:41:50;16.07;;;2.97;;
11711;SDS011;5912;51.034;6.984;2023-12-20T06:44:16;9.70;;;3.37;;
11711;SDS011;5912;51.034;6.984;2023-12-20T06:46:41;9.70;;;2.53;;
11711;SDS011;5912;51.034;6.984;2023-12-20T06:49:07;9.83;;;3.43;;
11711;SDS011;5912;51.034;6.984;2023-12-20T06:51:32;7.63;;;2.80;;
11711;SDS011;5912;51.034;6.984;2023-12-20T06:53:57;10.13;;;3.07;;
11711;SDS011;5912;51.034;6.984;2023-12-20T06:56:23;10.27;;;3.87;;
11711;SDS011;5912;51.034;6.984;2023-12-20T06:58:48;8.27;;;2.90;;
11711;SDS011;5912;51.034;6.984;2023-12-20T07:01:14;13.83;;;2.80;;
11711;SDS011;5912;51.034;6.984;2023-12-20T07:03:40;12.33;;;2.80;;
11711;SDS011;5912;51.034;6.984;2023-12-20T07:06:05;9.07;;;2.57;;
11711;SDS011;5912;51.034;6.984;2023-12-20T07:08:31;8.03;;;2.40;;
11711;SDS011;5912;51.034;6.984;2023-12-20T07:10:56;8.33;;;2.60;;
11711;SDS011;5912;51.034;6.984;2023-12-20T07:13:22;11.33;;;2.73;;
11711;SDS011;5912;51.034;6.984;2023-12-20T07:15:47;13.33;;;3.27;;
11711;SDS011;5912;51.034;6.984;2023-12-20T07:18:13;8.97;;;3.00;;
11711;SDS011;5912;51.034;6.984;2023-12-20T07:20:39;7.70;;;2.80;;
11711;SDS011;5912;51.034;6.984;2023-12-20T07:23:04;7.40;;;2.63;;
11711;SDS011;5912;51.034;6.984;2023-12-20T07:25:29;6.20;;;2.50;;
11711;SDS011;5912;51.034;6.984;2023-12-20T07:27:57;8.57;;;2.63;;
11711;SDS011;5912;51.034;6.984;2023-12-20T07:30:22;9.77;;;2.60;;
11711;SDS011;5912;51.034;6.984;2023-12-20T07:32:48;7.93;;;2.97;;
11711;SDS011;5912;51.034;6.984;2023-12-20T07:35:13;10.30;;;3.13;;
11711;SDS011;5912;51.034;6.984;2023-12-20T07:37:38;9.00;;;2.83;;
11711;SDS011;5912;51.034;6.984;2023-12-20T07:40:04;10.90;;;3.40;;
11711;SDS011;5912;51.034;6.984;2023-12-20T07:42:30;10.20;;;3.33;;
11711;SDS011;5912;51.034;6.984;2023-12-20T07:44:55;10.93;;;3.80;;
11711;SDS011;5912;51.034;6.984;2023-12-20T07:47:21;9.77;;;3.60;;
11711;SDS011;5912;51.034;6.984;2023-12-20T07:49:48;13.93;;;3.50;;
11711;SDS011;5912;51.034;6.984;2023-12-20T07:52:13;9.97;;;3.80;;
11711;SDS011;5912;51.034;6.984;2023-12-20T07:54:39;10.80;;;3.37;;
11711;SDS011;5912;51.034;6.984;2023-12-20T07:57:05;11.57;;;3.60;;
11711;SDS011;5912;51.034;6.984;2023-12-20T07:59:30;11.90;;;3.83;;
11711;SDS011;5912;51.034;6.984;2023-12-20T08:01:56;10.17;;;3.47;;
11711;SDS011;5912;51.034;6.984;2023-12-20T08:04:21;8.93;;;3.47;;
11711;SDS011;5912;51.034;6.984;2023-12-20T08:06:47;8.00;;;3.87;;
11711;SDS011;5912;51.034;6.984;2023-12-20T08:09:12;15.83;;;3.60;;
11711;SDS011;5912;51.034;6.984;2023-12-20T08:11:38;12.97;;;3.67;;
11711;SDS011;5912;51.034;6.984;2023-12-20T08:14:03;8.23;;;3.23;;
11711;SDS011;5912;51.034;6.984;2023-12-20T08:16:28;11.40;;;3.30;;
11711;SDS011;5912;51.034;6.984;2023-12-20T08:18:53;10.47;;;3.90;;
11711;SDS011;5912;51.034;6.984;2023-12-20T08:21:19;12.93;;;3.20;;
11711;SDS011;5912;51.034;6.984;2023-12-20T08:23:47;10.33;;;3.70;;
11711;SDS011;5912;51.034;6.984;2023-12-20T08:26:13;6.50;;;3.10;;
11711;SDS011;5912;51.034;6.984;2023-12-20T08:28:38;11.00;;;3.20;;
11711;SDS011;5912;51.034;6.984;2023-12-20T08:31:03;13.57;;;3.63;;
11711;SDS011;5912;51.034;6.984;2023-12-20T08:33:29;9.43;;;3.07;;
11711;SDS011;5912;51.034;6.984;2023-12-20T08:35:54;10.97;;;3.07;;
11711;SDS011;5912;51.034;6.984;2023-12-20T08:38:19;9.83;;;3.23;;
11711;SDS011;5912;51.034;6.984;2023-12-20T08:40:45;9.27;;;2.83;;
11711;SDS011;5912;51.034;6.984;2023-12-20T08:43:10;10.20;;;3.10;;
11711;SDS011;5912;51.034;6.984;2023-12-20T08:45:36;14.60;;;3.07;;
11711;SDS011;5912;51.034;6.984;2023-12-20T08:48:01;10.93;;;2.80;;
11711;SDS011;5912;51.034;6.984;2023-12-20T08:50:28;9.43;;;2.90;;
11711;SDS011;5912;51.034;6.984;2023-12-20T08:52:53;6.10;;;3.10;;
11711;SDS011;5912;51.034;6.984;2023-12-20T08:55:19;10.07;;;2.73;;
11711;SDS011;5912;51.034;6.984;2023-12-20T08:57:44;10.60;;;3.07;;
11711;SDS011;5912;51.034;6.984;2023-12-20T09:00:10;15.03;;;3.43;;
11711;SDS011;5912;51.034;6.984;2023-12-20T09:02:35;8.27;;;2.57;;
11711;SDS011;5912;51.034;6.984;2023-12-20T09:05:01;9.90;;;2.83;;
11711;SDS011;5912;51.034;6.984;2023-12-20T09:07:28;7.87;;;2.43;;
11711;SDS011;5912;51.034;6.984;2023-12-20T09:09:55;11.23;;;2.87;;
11711;SDS011;5912;51.034;6.984;2023-12-20T09:12:21;12.63;;;2.90;;
11711;SDS011;5912;51.034;6.984;2023-12-20T09:14:47;13.03;;;3.37;;
11711;SDS011;5912;51.034;6.984;2023-12-20T09:17:14;12.30;;;3.07;;
11711;SDS011;5912;51.034;6.984;2023-12-20T09:19:41;6.60;;;2.80;;
11711;SDS011;5912;51.034;6.984;2023-12-20T09:22:06;7.87;;;2.67;;
11711;SDS011;5912;51.034;6.984;2023-12-20T09:24:32;8.90;;;3.03;;
11711;SDS011;5912;51.034;6.984;2023-12-20T09:26:58;9.47;;;2.63;;
11711;SDS011;5912;51.034;6.984;2023-12-20T09:29:23;8.27;;;2.63;;
11711;SDS011;5912;51.034;6.984;2023-12-20T09:31:49;7.23;;;2.70;;
11711;SDS011;5912;51.034;6.984;2023-12-20T09:34:15;6.93;;;2.03;;
11711;SDS011;5912;51.034;6.984;2023-12-20T09:36:42;8.87;;;3.50;;
11711;SDS011;5912;51.034;6.984;2023-12-20T09:39:11;10.20;;;2.40;;
11711;SDS011;5912;51.034;6.984;2023-12-20T09:41:39;7.17;;;2.47;;
11711;SDS011;5912;51.034;6.984;2023-12-20T09:44:15;14.97;;;2.53;;
11711;SDS011;5912;51.034;6.984;2023-12-20T09:46:43;11.87;;;3.23;;
11711;SDS011;5912;51.034;6.984;2023-12-20T09:49:14;7.67;;;2.77;;
11711;SDS011;5912;51.034;6.984;2023-12-20T09:51:42;7.93;;;2.70;;
11711;SDS011;5912;51.034;6.984;2023-12-20T09:54:07;9.70;;;2.87;;
11711;SDS011;5912;51.034;6.984;2023-12-20T09:56:34;11.43;;;3.53;;
11711;SDS011;5912;51.034;6.984;2023-12-20T09:58:59;8.63;;;2.22;;
11711;SDS011;5912;51.034;6.984;2023-12-20T10:01:25;8.70;;;2.83;;
11711;SDS011;5912;51.034;6.984;2023-12-20T10:03:51;7.10;;;2.50;;
11711;SDS011;5912;51.034;6.984;2023-12-20T10:06:19;11.23;;;2.40;;
11711;SDS011;5912;51.034;6.984;2023-12-20T10:08:45;5.47;;;1.83;;
11711;SDS011;5912;51.034;6.984;2023-12-20T10:11:10;10.57;;;3.13;;
11711;SDS011;5912;51.034;6.984;2023-12-20T10:13:42;8.97;;;2.37;;
11711;SDS011;5912;51.034;6.984;2023-12-20T10:16:08;11.30;;;2.40;;
11711;SDS011;5912;51.034;6.984;2023-12-20T10:18:33;11.27;;;2.67;;
11711;SDS011;5912;51.034;6.984;2023-12-20T10:21:00;8.63;;;2.30;;
11711;SDS011;5912;51.034;6.984;2023-12-20T10:23:25;7.50;;;2.27;;
11711;SDS011;5912;51.034;6.984;2023-12-20T10:26:00;10.00;;;2.67;;
11711;SDS011;5912;51.034;6.984;2023-12-20T10:28:25;6.73;;;2.10;;
11711;SDS011;5912;51.034;6.984;2023-12-20T10:30:54;7.70;;;2.20;;
11711;SDS011;5912;51.034;6.984;2023-12-20T10:33:25;10.47;;;2.27;;
11711;SDS011;5912;51.034;6.984;2023-12-20T10:35:51;9.10;;;2.20;;
11711;SDS011;5912;51.034;6.984;2023-12-20T10:38:17;7.70;;;2.50;;
11711;SDS011;5912;51.034;6.984;2023-12-20T10:40:42;7.67;;;2.13;;
11711;SDS011;5912;51.034;6.984;2023-12-20T10:43:10;7.47;;;2.33;;
11711;SDS011;5912;51.034;6.984;2023-12-20T10:45:36;7.17;;;2.73;;
11711;SDS011;5912;51.034;6.984;2023-12-20T10:48:02;8.37;;;2.13;;
11711;SDS011;5912;51.034;6.984;2023-12-20T10:50:28;8.73;;;2.17;;
11711;SDS011;5912;51.034;6.984;2023-12-20T10:52:55;8.77;;;2.47;;
11711;SDS011;5912;51.034;6.984;2023-12-20T10:55:24;6.77;;;2.40;;
11711;SDS011;5912;51.034;6.984;2023-12-20T10:58:00;10.50;;;2.40;;
11711;SDS011;5912;51.034;6.984;2023-12-20T11:00:26;10.40;;;2.60;;
11711;SDS011;5912;51.034;6.984;2023-12-20T11:02:55;7.00;;;2.20;;
11711;SDS011;5912;51.034;6.984;2023-12-20T11:08:28;10.60;;;2.17;;
11711;SDS011;5912;51.034;6.984;2023-12-20T11:14:23;7.10;;;2.07;;
11711;SDS011;5912;51.034;6.984;2023-12-20T11:16:50;7.93;;;2.23;;
11711;SDS011;5912;51.034;6.984;2023-12-20T11:19:30;8.10;;;2.10;;
11711;SDS011;5912;51.034;6.984;2023-12-20T11:21:56;6.77;;;2.03;;
11711;SDS011;5912;51.034;6.984;2023-12-20T11:24:22;12.57;;;3.23;;
11711;SDS011;5912;51.034;6.984;2023-12-20T11:26:49;8.40;;;2.17;;
11711;SDS011;5912;51.034;6.984;2023-12-20T11:29:34;7.17;;;2.50;;
11711;SDS011;5912;51.034;6.984;2023-12-20T11:32:01;7.10;;;2.73;;
11711;SDS011;5912;51.034;6.984;2023-12-20T11:34:53;10.07;;;2.30;;
11711;SDS011;5912;51.034;6.984;2023-12-20T11:37:28;7.03;;;1.77;;
11711;SDS011;5912;51.034;6.984;2023-12-20T11:40:02;9.33;;;2.23;;
11711;SDS011;5912;51.034;6.984;2023-12-20T11:42:37;9.83;;;2.43;;
11711;SDS011;5912;51.034;6.984;2023-12-20T11:45:10;8.33;;;2.23;;
11711;SDS011;5912;51.034;6.984;2023-12-20T11:47:36;8.53;;;2.10;;
11711;SDS011;5912;51.034;6.984;2023-12-20T11:50:02;6.40;;;1.93;;
11711;SDS011;5912;51.034;6.984;2023-12-20T11:52:29;8.70;;;2.23;;
11711;SDS011;5912;51.034;6.984;2023-12-20T11:54:55;11.73;;;2.33;;
11711;SDS011;5912;51.034;6.984;2023-12-20T11:57:20;10.47;;;2.60;;
11711;SDS011;5912;51.034;6.984;2023-12-20T11:59:45;10.67;;;2.20;;
11711;SDS011;5912;51.034;6.984;2023-12-20T12:02:11;7.30;;;2.00;;
11711;SDS011;5912;51.034;6.984;2023-12-20T12:04:37;11.63;;;2.97;;
11711;SDS011;5912;51.034;6.984;2023-12-20T12:07:02;8.37;;;2.53;;
11711;SDS011;5912;51.034;6.984;2023-12-20T12:09:28;11.33;;;2.60;;
11711;SDS011;5912;51.034;6.984;2023-12-20T12:11:53;8.63;;;2.30;;
11711;SDS011;5912;51.034;6.984;2023-12-20T12:14:19;6.67;;;2.07;;
11711;SDS011;5912;51.034;6.984;2023-12-20T12:16:45;8.10;;;2.30;;
11711;SDS011;5912;51.034;6.984;2023-12-20T12:19:24;11.37;;;2.93;;
11711;SDS011;5912;51.034;6.984;2023-12-20T12:21:51;8.10;;;2.53;;
11711;SDS011;5912;51.034;6.984;2023-12-20T12:24:28;12.60;;;2.83;;
11711;SDS011;5912;51.034;6.984;2023-12-20T12:26:56;8.17;;;2.40;;
11711;SDS011;5912;51.034;6.984;2023-12-20T12:29:22;8.70;;;2.40;;
11711;SDS011;5912;51.034;6.984;2023-12-20T12:31:49;10.57;;;2.60;;
11711;SDS011;5912;51.034;6.984;2023-12-20T12:34:15;9.10;;;3.07;;
11711;SDS011;5912;51.034;6.984;2023-12-20T12:36:41;10.10;;;2.90;;
11711;SDS011;5912;51.034;6.984;2023-12-20T12:39:06;9.97;;;2.80;;
11711;SDS011;5912;51.034;6.984;2023-12-20T12:41:32;8.97;;;2.37;;
11711;SDS011;5912;51.034;6.984;2023-12-20T12:43:57;9.10;;;3.23;;
11711;SDS011;5912;51.034;6.984;2023-12-20T12:46:22;8.37;;;2.57;;
11711;SDS011;5912;51.034;6.984;2023-12-20T12:48:48;10.80;;;3.30;;
11711;SDS011;5912;51.034;6.984;2023-12-20T12:51:15;8.93;;;3.00;;
11711;SDS011;5912;51.034;6.984;2023-12-20T12:53:40;14.02;;;2.90;;
11711;SDS011;5912;51.034;6.984;2023-12-20T12:56:06;12.70;;;3.17;;
11711;SDS011;5912;51.034;6.984;2023-12-20T12:58:32;10.43;;;2.60;;
11711;SDS011;5912;51.034;6.984;2023-12-20T13:00:57;7.27;;;2.87;;
11711;SDS011;5912;51.034;6.984;2023-12-20T13:03:23;6.33;;;2.43;;
11711;SDS011;5912;51.034;6.984;2023-12-20T13:05:49;10.50;;;3.00;;
11711;SDS011;5912;51.034;6.984;2023-12-20T13:08:15;9.50;;;2.93;;
11711;SDS011;5912;51.034;6.984;2023-12-20T13:10:40;8.10;;;2.93;;
11711;SDS011;5912;51.034;6.984;2023-12-20T13:13:05;9.70;;;3.07;;
11711;SDS011;5912;51.034;6.984;2023-12-20T13:15:31;10.20;;;2.97;;
11711;SDS011;5912;51.034;6.984;2023-12-20T13:17:56;12.17;;;2.80;;
11711;SDS011;5912;51.034;6.984;2023-12-20T13:20:21;13.63;;;2.90;;
11711;SDS011;5912;51.034;6.984;2023-12-20T13:22:47;7.70;;;2.67;;
11711;SDS011;5912;51.034;6.984;2023-12-20T13:25:13;8.43;;;2.90;;
11711;SDS011;5912;51.034;6.984;2023-12-20T13:27:38;13.40;;;2.73;;
11711;SDS011;5912;51.034;6.984;2023-12-20T13:30:04;7.10;;;2.90;;
11711;SDS011;5912;51.034;6.984;2023-12-20T13:32:30;6.20;;;2.23;;
11711;SDS011;5912;51.034;6.984;2023-12-20T13:34:56;7.07;;;2.77;;
11711;SDS011;5912;51.034;6.984;2023-12-20T13:37:21;8.97;;;2.93;;
11711;SDS011;5912;51.034;6.984;2023-12-20T13:39:47;10.20;;;2.53;;
11711;SDS011;5912;51.034;6.984;2023-12-20T13:42:12;7.53;;;2.67;;
11711;SDS011;5912;51.034;6.984;2023-12-20T13:44:38;5.45;;;2.58;;
11711;SDS011;5912;51.034;6.984;2023-12-20T13:47:03;7.10;;;2.93;;
11711;SDS011;5912;51.034;6.984;2023-12-20T13:49:28;8.70;;;2.83;;
11711;SDS011;5912;51.034;6.984;2023-12-20T13:51:54;8.80;;;2.97;;
11711;SDS011;5912;51.034;6.984;2023-12-20T13:54:20;8.33;;;2.30;;
11711;SDS011;5912;51.034;6.984;2023-12-20T13:56:47;5.00;;;2.33;;
11711;SDS011;5912;51.034;6.984;2023-12-20T13:59:12;7.20;;;2.35;;
11711;SDS011;5912;51.034;6.984;2023-12-20T14:01:38;5.07;;;2.20;;
11711;SDS011;5912;51.034;6.984;2023-12-20T14:04:04;8.07;;;2.57;;
11711;SDS011;5912;51.034;6.984;2023-12-20T14:06:29;7.97;;;3.10;;
11711;SDS011;5912;51.034;6.984;2023-12-20T14:11:41;5.80;;;2.20;;
11711;SDS011;5912;51.034;6.984;2023-12-20T14:14:07;5.07;;;2.22;;
11711;SDS011;5912;51.034;6.984;2023-12-20T14:16:33;8.87;;;2.53;;
11711;SDS011;5912;51.034;6.984;2023-12-20T14:19:00;6.83;;;2.50;;
11711;SDS011;5912;51.034;6.984;2023-12-20T14:21:25;4.77;;;2.30;;
11711;SDS011;5912;51.034;6.984;2023-12-20T14:23:50;8.03;;;2.50;;
11711;SDS011;5912;51.034;6.984;2023-12-20T14:26:17;6.32;;;2.20;;
11711;SDS011;5912;51.034;6.984;2023-12-20T14:28:42;6.87;;;2.43;;
11711;SDS011;5912;51.034;6.984;2023-12-20T14:31:08;4.80;;;1.92;;
11711;SDS011;5912;51.034;6.984;2023-12-20T14:33:35;7.83;;;2.53;;
11711;SDS011;5912;51.034;6.984;2023-12-20T14:36:00;5.80;;;2.27;;
11711;SDS011;5912;51.034;6.984;2023-12-20T14:38:26;5.60;;;2.70;;
11711;SDS011;5912;51.034;6.984;2023-12-20T14:40:52;8.13;;;2.63;;
11711;SDS011;5912;51.034;6.984;2023-12-20T14:43:19;10.33;;;2.60;;
11711;SDS011;5912;51.034;6.984;2023-12-20T14:45:44;7.03;;;2.87;;
11711;SDS011;5912;51.034;6.984;2023-12-20T14:48:10;8.27;;;2.10;;
11711;SDS011;5912;51.034;6.984;2023-12-20T14:50:35;7.10;;;2.40;;
11711;SDS011;5912;51.034;6.984;2023-12-20T14:53:01;6.60;;;2.33;;
11711;SDS011;5912;51.034;6.984;2023-12-20T14:55:27;7.93;;;2.87;;
11711;SDS011;5912;51.034;6.984;2023-12-20T14:57:53;5.83;;;2.40;;